Dati Storici

Data ora Umidita' aria (%) Temperatura aria (°C) Rad globale (W/m²) Gonioanemometro (°) Tacoanemometro (m/s) Pioggia (mm)
06-11-2012 18:50 78.1 % 12.2 2.103 189.423 0.377 0
06-11-2012 18:40 78.8 % 12.12 1.838 212.195 0.197 0
06-11-2012 18:30 78.4 % 12.353 2.261 20.714 0.54 0
06-11-2012 18:20 78.1 % 12.548 1.185 176.075 0.706 0
06-11-2012 18:10 76.4 % 12.213 0.633 184.297 0.49 0
06-11-2012 18:00 74 % 12.897 2.454 320.714 -0.014 0
06-11-2012 17:50 71.8 % 13.325 4.774 126.613 0.149 0
06-11-2012 17:40 70.8 % 13.654 8.652 127.321 0.777 0
06-11-2012 17:30 70.1 % 13.706 16.256 124.951 1.196 0
06-11-2012 17:20 67.6 % 14.178 21.886 76.578 0.45 0
06-11-2012 17:10 64.8 % 14.58 22.409 65.883 0.354 0
06-11-2012 17:00 62 % 15.508 26.633 166.723 0.41 0
06-11-2012 16:50 61.9 % 15.687 96.499 125.456 0.953 0
06-11-2012 16:40 60.5 % 15.818 118.462 120.826 1.559 0
06-11-2012 16:30 58.5 % 16.268 142.26 143.082 1.062 0
06-11-2012 16:20 56.5 % 16.695 162.61 105.255 1.184 0
06-11-2012 16:10 52.7 % 17.272 189.142 137.583 1.531 0
06-11-2012 16:00 52.8 % 16.987 216.816 200.09 0.593 0
06-11-2012 15:50 52.3 % 16.935 239.826 309.004 0.784 0
06-11-2012 15:40 52.4 % 17.557 266.039 336.348 1.426 0

I dati sono presentati in modo automatico a scopo informativo. In seguito a verifica i dati possono subire modifiche o essere invalidati e non riportati negli archivi definitivi.